McAdoo, Texas
Current Conditions -  °F | °C
As of 4:53 AM on Thursday 23 Oct 2014 (Local Time) from KLBB Reporting Station
Clear Clear  
Wind Chill: 12°   Ceiling: Unl
Heat Index: 12°   Visibility: 7mi
Dew Point: 11°   Wind: 6mph
Humidity: 93%   Direction: 190°S
Pressure: 30.12"   Gusts: NA
Location:  33.73°N, 101.01°W
Report Text: KLBB 230953Z 19005KT 7SM CLR 12/11 A3012 RMK AO2 SLP168 BR ALQDS T01170106 $
Loading
Personal Weather Stations






























Interactive Weather Map
Tropical Storm Tracking
New forecast layout! Learn more

10-Day Weather Forecast

Advertisements
Track Severe Weather on mobile